sensor_id;sensor_type;location;lat;lon;timestamp;temperature;humidity
1297;DHT22;641;48.492;9.184;2023-07-22T00:00:28;13.40;90.50
1297;DHT22;641;48.492;9.184;2023-07-22T00:02:54;13.40;90.60
1297;DHT22;641;48.492;9.184;2023-07-22T00:05:19;13.30;90.50
1297;DHT22;641;48.492;9.184;2023-07-22T00:07:51;13.30;90.60
1297;DHT22;641;48.492;9.184;2023-07-22T00:10:17;13.20;90.50
1297;DHT22;641;48.492;9.184;2023-07-22T00:12:42;13.10;91.00
1297;DHT22;641;48.492;9.184;2023-07-22T00:15:08;13.10;91.10
1297;DHT22;641;48.492;9.184;2023-07-22T00:17:37;13.10;91.20
1297;DHT22;641;48.492;9.184;2023-07-22T00:20:03;13.10;91.10
1297;DHT22;641;48.492;9.184;2023-07-22T00:22:30;13.10;91.40
1297;DHT22;641;48.492;9.184;2023-07-22T00:24:56;13.10;91.40
1297;DHT22;641;48.492;9.184;2023-07-22T00:27:25;13.00;91.00
1297;DHT22;641;48.492;9.184;2023-07-22T00:29:50;13.00;91.20
1297;DHT22;641;48.492;9.184;2023-07-22T00:32:16;13.00;91.50
1297;DHT22;641;48.492;9.184;2023-07-22T00:34:41;13.00;91.50
1297;DHT22;641;48.492;9.184;2023-07-22T00:37:07;12.90;91.70
1297;DHT22;641;48.492;9.184;2023-07-22T00:39:33;12.90;91.70
1297;DHT22;641;48.492;9.184;2023-07-22T00:41:58;13.00;92.20
1297;DHT22;641;48.492;9.184;2023-07-22T00:44:24;12.90;92.00
1297;DHT22;641;48.492;9.184;2023-07-22T00:46:56;13.00;92.00
1297;DHT22;641;48.492;9.184;2023-07-22T00:49:23;12.90;91.80
1297;DHT22;641;48.492;9.184;2023-07-22T00:51:49;13.00;92.00
1297;DHT22;641;48.492;9.184;2023-07-22T00:54:15;13.00;92.20
1297;DHT22;641;48.492;9.184;2023-07-22T00:56:41;13.00;91.70
1297;DHT22;641;48.492;9.184;2023-07-22T00:59:08;13.10;93.30
1297;DHT22;641;48.492;9.184;2023-07-22T01:01:34;13.40;93.20
1297;DHT22;641;48.492;9.184;2023-07-22T01:03:59;13.40;92.80
1297;DHT22;641;48.492;9.184;2023-07-22T01:06:27;13.20;91.00
1297;DHT22;641;48.492;9.184;2023-07-22T01:08:56;13.10;91.60
1297;DHT22;641;48.492;9.184;2023-07-22T01:11:22;13.10;92.10
1297;DHT22;641;48.492;9.184;2023-07-22T01:13:47;13.20;92.50
1297;DHT22;641;48.492;9.184;2023-07-22T01:16:13;13.20;91.40
1297;DHT22;641;48.492;9.184;2023-07-22T01:18:39;13.10;91.80
1297;DHT22;641;48.492;9.184;2023-07-22T01:21:06;13.00;91.60
1297;DHT22;641;48.492;9.184;2023-07-22T01:23:32;12.90;91.70
1297;DHT22;641;48.492;9.184;2023-07-22T01:25:58;12.80;91.70
1297;DHT22;641;48.492;9.184;2023-07-22T01:28:24;12.70;91.90
1297;DHT22;641;48.492;9.184;2023-07-22T01:30:49;12.70;92.20
1297;DHT22;641;48.492;9.184;2023-07-22T01:33:15;12.60;92.10
1297;DHT22;641;48.492;9.184;2023-07-22T01:35:41;12.60;92.30
1297;DHT22;641;48.492;9.184;2023-07-22T01:38:06;12.70;92.20
1297;DHT22;641;48.492;9.184;2023-07-22T01:40:33;12.60;92.40
1297;DHT22;641;48.492;9.184;2023-07-22T01:42:59;12.60;92.50
1297;DHT22;641;48.492;9.184;2023-07-22T01:45:24;12.70;92.90
1297;DHT22;641;48.492;9.184;2023-07-22T01:47:50;12.60;92.10
1297;DHT22;641;48.492;9.184;2023-07-22T01:50:16;12.50;92.60
1297;DHT22;641;48.492;9.184;2023-07-22T01:52:44;12.50;92.70
1297;DHT22;641;48.492;9.184;2023-07-22T01:55:09;12.50;92.70
1297;DHT22;641;48.492;9.184;2023-07-22T01:57:36;12.60;93.30
1297;DHT22;641;48.492;9.184;2023-07-22T02:00:02;12.90;93.20
1297;DHT22;641;48.492;9.184;2023-07-22T02:02:30;12.80;92.80
1297;DHT22;641;48.492;9.184;2023-07-22T02:04:56;12.90;92.60
1297;DHT22;641;48.492;9.184;2023-07-22T02:07:21;12.80;92.80
1297;DHT22;641;48.492;9.184;2023-07-22T02:09:47;12.60;92.20
1297;DHT22;641;48.492;9.184;2023-07-22T02:12:12;12.70;93.20
1297;DHT22;641;48.492;9.184;2023-07-22T02:14:38;12.50;92.50
1297;DHT22;641;48.492;9.184;2023-07-22T02:17:04;12.60;92.90
1297;DHT22;641;48.492;9.184;2023-07-22T02:19:29;12.50;92.80
1297;DHT22;641;48.492;9.184;2023-07-22T02:21:55;12.40;92.80
1297;DHT22;641;48.492;9.184;2023-07-22T02:24:21;12.50;93.20
1297;DHT22;641;48.492;9.184;2023-07-22T02:26:47;12.40;93.30
1297;DHT22;641;48.492;9.184;2023-07-22T02:29:13;12.40;93.20
1297;DHT22;641;48.492;9.184;2023-07-22T02:31:38;12.40;93.40
1297;DHT22;641;48.492;9.184;2023-07-22T02:34:05;12.40;93.70
1297;DHT22;641;48.492;9.184;2023-07-22T02:36:31;12.30;93.60
1297;DHT22;641;48.492;9.184;2023-07-22T02:38:56;12.50;95.00
1297;DHT22;641;48.492;9.184;2023-07-22T02:41:22;12.80;94.30
1297;DHT22;641;48.492;9.184;2023-07-22T02:43:47;12.60;93.00
1297;DHT22;641;48.492;9.184;2023-07-22T02:46:13;12.50;93.10
1297;DHT22;641;48.492;9.184;2023-07-22T02:48:38;12.30;93.20
1297;DHT22;641;48.492;9.184;2023-07-22T02:51:09;12.30;93.10
1297;DHT22;641;48.492;9.184;2023-07-22T02:53:35;12.30;93.30
1297;DHT22;641;48.492;9.184;2023-07-22T02:56:04;12.20;93.70
1297;DHT22;641;48.492;9.184;2023-07-22T02:58:30;12.20;93.10
1297;DHT22;641;48.492;9.184;2023-07-22T03:00:56;12.10;93.30
1297;DHT22;641;48.492;9.184;2023-07-22T03:03:23;12.10;93.30
1297;DHT22;641;48.492;9.184;2023-07-22T03:05:48;12.10;93.40
1297;DHT22;641;48.492;9.184;2023-07-22T03:08:14;12.00;93.40
1297;DHT22;641;48.492;9.184;2023-07-22T03:10:40;12.00;93.80
1297;DHT22;641;48.492;9.184;2023-07-22T03:13:05;11.90;93.70
1297;DHT22;641;48.492;9.184;2023-07-22T03:15:32;11.90;94.00
1297;DHT22;641;48.492;9.184;2023-07-22T03:17:58;11.90;93.80
1297;DHT22;641;48.492;9.184;2023-07-22T03:20:25;11.90;94.00
1297;DHT22;641;48.492;9.184;2023-07-22T03:22:51;11.90;93.70
1297;DHT22;641;48.492;9.184;2023-07-22T03:25:17;11.90;93.90
1297;DHT22;641;48.492;9.184;2023-07-22T03:27:43;11.90;93.80
1297;DHT22;641;48.492;9.184;2023-07-22T03:30:14;11.80;93.90
1297;DHT22;641;48.492;9.184;2023-07-22T03:32:41;11.90;94.30
1297;DHT22;641;48.492;9.184;2023-07-22T03:35:08;11.90;94.10
1297;DHT22;641;48.492;9.184;2023-07-22T03:37:37;11.80;94.10
1297;DHT22;641;48.492;9.184;2023-07-22T03:40:04;11.70;94.50
1297;DHT22;641;48.492;9.184;2023-07-22T03:42:37;11.70;94.40
1297;DHT22;641;48.492;9.184;2023-07-22T03:45:03;11.80;94.50
1297;DHT22;641;48.492;9.184;2023-07-22T03:47:29;11.80;94.50
1297;DHT22;641;48.492;9.184;2023-07-22T03:49:55;11.70;94.60
1297;DHT22;641;48.492;9.184;2023-07-22T03:52:21;11.80;94.50
1297;DHT22;641;48.492;9.184;2023-07-22T03:54:47;11.70;94.50
1297;DHT22;641;48.492;9.184;2023-07-22T03:57:12;11.70;94.50
1297;DHT22;641;48.492;9.184;2023-07-22T03:59:39;11.70;94.70
1297;DHT22;641;48.492;9.184;2023-07-22T04:02:05;11.70;95.10
1297;DHT22;641;48.492;9.184;2023-07-22T04:04:31;11.80;94.80
1297;DHT22;641;48.492;9.184;2023-07-22T04:06:56;11.70;95.20
1297;DHT22;641;48.492;9.184;2023-07-22T04:09:22;11.70;95.30
1297;DHT22;641;48.492;9.184;2023-07-22T04:11:47;11.70;96.20
1297;DHT22;641;48.492;9.184;2023-07-22T04:14:13;11.90;95.50
1297;DHT22;641;48.492;9.184;2023-07-22T04:16:39;11.90;95.00
1297;DHT22;641;48.492;9.184;2023-07-22T04:19:05;11.90;95.10
1297;DHT22;641;48.492;9.184;2023-07-22T04:21:31;12.00;94.90
1297;DHT22;641;48.492;9.184;2023-07-22T04:23:57;12.10;95.00
1297;DHT22;641;48.492;9.184;2023-07-22T04:26:22;12.20;95.30
1297;DHT22;641;48.492;9.184;2023-07-22T04:28:48;12.30;95.50
1297;DHT22;641;48.492;9.184;2023-07-22T04:31:13;12.40;95.50
1297;DHT22;641;48.492;9.184;2023-07-22T04:33:39;12.40;94.00
1297;DHT22;641;48.492;9.184;2023-07-22T04:36:06;12.60;94.90
1297;DHT22;641;48.492;9.184;2023-07-22T04:38:32;12.80;95.00
1297;DHT22;641;48.492;9.184;2023-07-22T04:40:58;13.00;94.60
1297;DHT22;641;48.492;9.184;2023-07-22T04:43:24;13.00;94.30
1297;DHT22;641;48.492;9.184;2023-07-22T04:45:50;13.00;94.10
1297;DHT22;641;48.492;9.184;2023-07-22T04:48:18;12.90;93.20
1297;DHT22;641;48.492;9.184;2023-07-22T04:50:43;12.80;93.20
1297;DHT22;641;48.492;9.184;2023-07-22T04:53:11;12.80;93.50
1297;DHT22;641;48.492;9.184;2023-07-22T04:55:38;12.70;93.40
1297;DHT22;641;48.492;9.184;2023-07-22T04:58:04;12.80;93.70
1297;DHT22;641;48.492;9.184;2023-07-22T05:00:30;12.80;94.40
1297;DHT22;641;48.492;9.184;2023-07-22T05:02:56;13.00;94.30
1297;DHT22;641;48.492;9.184;2023-07-22T05:05:21;13.10;94.30
1297;DHT22;641;48.492;9.184;2023-07-22T05:07:47;13.20;92.50
1297;DHT22;641;48.492;9.184;2023-07-22T05:10:16;13.10;92.20
1297;DHT22;641;48.492;9.184;2023-07-22T05:12:42;13.20;92.30
1297;DHT22;641;48.492;9.184;2023-07-22T05:15:10;13.20;92.20
1297;DHT22;641;48.492;9.184;2023-07-22T05:17:36;13.30;92.40
1297;DHT22;641;48.492;9.184;2023-07-22T05:20:03;13.30;92.80
1297;DHT22;641;48.492;9.184;2023-07-22T05:22:31;13.40;92.40
1297;DHT22;641;48.492;9.184;2023-07-22T05:24:57;13.40;91.90
1297;DHT22;641;48.492;9.184;2023-07-22T05:27:22;13.40;91.60
1297;DHT22;641;48.492;9.184;2023-07-22T05:29:48;13.20;91.90
1297;DHT22;641;48.492;9.184;2023-07-22T05:32:14;13.20;91.80
1297;DHT22;641;48.492;9.184;2023-07-22T05:34:39;13.30;92.30
1297;DHT22;641;48.492;9.184;2023-07-22T05:37:05;13.40;91.90
1297;DHT22;641;48.492;9.184;2023-07-22T05:39:30;13.50;92.00
1297;DHT22;641;48.492;9.184;2023-07-22T05:41:56;13.60;91.60
1297;DHT22;641;48.492;9.184;2023-07-22T05:44:22;13.70;91.70
1297;DHT22;641;48.492;9.184;2023-07-22T05:46:47;13.80;91.60
1297;DHT22;641;48.492;9.184;2023-07-22T05:49:13;13.90;91.00
1297;DHT22;641;48.492;9.184;2023-07-22T05:51:38;13.80;90.80
1297;DHT22;641;48.492;9.184;2023-07-22T05:54:04;13.80;90.30
1297;DHT22;641;48.492;9.184;2023-07-22T05:56:30;13.80;90.10
1297;DHT22;641;48.492;9.184;2023-07-22T05:58:55;13.80;90.40
1297;DHT22;641;48.492;9.184;2023-07-22T06:01:23;13.80;90.80
1297;DHT22;641;48.492;9.184;2023-07-22T06:03:48;13.90;90.60
1297;DHT22;641;48.492;9.184;2023-07-22T06:06:14;14.10;90.50
1297;DHT22;641;48.492;9.184;2023-07-22T06:08:39;14.10;90.40
1297;DHT22;641;48.492;9.184;2023-07-22T06:11:05;14.20;90.10
1297;DHT22;641;48.492;9.184;2023-07-22T06:13:31;14.20;90.00
1297;DHT22;641;48.492;9.184;2023-07-22T06:15:56;14.30;89.80
1297;DHT22;641;48.492;9.184;2023-07-22T06:18:22;14.40;89.20
1297;DHT22;641;48.492;9.184;2023-07-22T06:20:48;14.40;88.10
1297;DHT22;641;48.492;9.184;2023-07-22T06:23:14;14.50;88.40
1297;DHT22;641;48.492;9.184;2023-07-22T06:25:39;14.60;87.50
1297;DHT22;641;48.492;9.184;2023-07-22T06:28:05;14.70;87.40
1297;DHT22;641;48.492;9.184;2023-07-22T06:30:31;14.80;88.00
1297;DHT22;641;48.492;9.184;2023-07-22T06:32:57;14.90;86.90
1297;DHT22;641;48.492;9.184;2023-07-22T06:35:23;15.00;86.60
1297;DHT22;641;48.492;9.184;2023-07-22T06:37:48;15.10;87.10
1297;DHT22;641;48.492;9.184;2023-07-22T06:40:14;15.10;85.70
1297;DHT22;641;48.492;9.184;2023-07-22T06:42:39;15.20;86.00
1297;DHT22;641;48.492;9.184;2023-07-22T06:45:05;15.40;85.00
1297;DHT22;641;48.492;9.184;2023-07-22T06:47:31;15.40;85.60
1297;DHT22;641;48.492;9.184;2023-07-22T06:49:57;15.60;84.90
1297;DHT22;641;48.492;9.184;2023-07-22T06:52:23;15.80;83.90
1297;DHT22;641;48.492;9.184;2023-07-22T06:54:48;15.80;82.10
1297;DHT22;641;48.492;9.184;2023-07-22T06:57:15;15.80;82.60
1297;DHT22;641;48.492;9.184;2023-07-22T06:59:41;16.00;83.00
1297;DHT22;641;48.492;9.184;2023-07-22T07:02:06;16.20;82.70
1297;DHT22;641;48.492;9.184;2023-07-22T07:04:32;16.50;80.30
1297;DHT22;641;48.492;9.184;2023-07-22T07:06:58;16.50;79.00
1297;DHT22;641;48.492;9.184;2023-07-22T07:09:24;16.70;77.90
1297;DHT22;641;48.492;9.184;2023-07-22T07:11:50;16.80;77.50
1297;DHT22;641;48.492;9.184;2023-07-22T07:14:17;17.10;76.50
1297;DHT22;641;48.492;9.184;2023-07-22T07:16:43;17.30;77.40
1297;DHT22;641;48.492;9.184;2023-07-22T07:19:09;17.60;74.90
1297;DHT22;641;48.492;9.184;2023-07-22T07:21:35;17.80;73.30
1297;DHT22;641;48.492;9.184;2023-07-22T07:24:01;17.80;73.30
1297;DHT22;641;48.492;9.184;2023-07-22T07:26:27;17.90;73.80
1297;DHT22;641;48.492;9.184;2023-07-22T07:28:53;18.10;71.50
1297;DHT22;641;48.492;9.184;2023-07-22T07:31:19;18.20;71.70
1297;DHT22;641;48.492;9.184;2023-07-22T07:33:45;18.30;69.30
1297;DHT22;641;48.492;9.184;2023-07-22T07:36:10;18.40;69.70
1297;DHT22;641;48.492;9.184;2023-07-22T07:38:36;18.60;68.60
1297;DHT22;641;48.492;9.184;2023-07-22T07:41:03;18.70;67.00
1297;DHT22;641;48.492;9.184;2023-07-22T07:43:29;18.90;63.60
1297;DHT22;641;48.492;9.184;2023-07-22T07:46:18;18.90;65.40
1297;DHT22;641;48.492;9.184;2023-07-22T07:49:05;19.00;63.60
1297;DHT22;641;48.492;9.184;2023-07-22T07:51:31;19.20;63.30
1297;DHT22;641;48.492;9.184;2023-07-22T07:53:58;19.30;62.50
1297;DHT22;641;48.492;9.184;2023-07-22T07:56:24;19.40;61.20
1297;DHT22;641;48.492;9.184;2023-07-22T07:58:51;19.60;59.30
1297;DHT22;641;48.492;9.184;2023-07-22T08:01:18;19.50;59.60
1297;DHT22;641;48.492;9.184;2023-07-22T08:03:43;19.50;61.10
1297;DHT22;641;48.492;9.184;2023-07-22T08:06:10;19.70;60.00
1297;DHT22;641;48.492;9.184;2023-07-22T08:08:37;19.80;60.30
1297;DHT22;641;48.492;9.184;2023-07-22T08:11:10;20.10;60.30
1297;DHT22;641;48.492;9.184;2023-07-22T08:13:37;20.20;57.70
1297;DHT22;641;48.492;9.184;2023-07-22T08:16:04;20.30;58.10
1297;DHT22;641;48.492;9.184;2023-07-22T08:18:31;20.40;57.50
1297;DHT22;641;48.492;9.184;2023-07-22T08:20:57;20.50;56.60
1297;DHT22;641;48.492;9.184;2023-07-22T08:23:23;20.60;55.80
1297;DHT22;641;48.492;9.184;2023-07-22T08:25:49;20.70;54.70
1297;DHT22;641;48.492;9.184;2023-07-22T08:28:15;20.60;52.90
1297;DHT22;641;48.492;9.184;2023-07-22T08:30:40;20.70;54.30
1297;DHT22;641;48.492;9.184;2023-07-22T08:33:08;20.90;53.10
1297;DHT22;641;48.492;9.184;2023-07-22T08:35:34;21.10;51.70
1297;DHT22;641;48.492;9.184;2023-07-22T08:38:00;20.90;51.40
1297;DHT22;641;48.492;9.184;2023-07-22T08:40:27;20.80;50.60
1297;DHT22;641;48.492;9.184;2023-07-22T08:42:54;20.90;49.70
1297;DHT22;641;48.492;9.184;2023-07-22T08:45:20;21.00;50.10
1297;DHT22;641;48.492;9.184;2023-07-22T08:47:47;21.10;49.40
1297;DHT22;641;48.492;9.184;2023-07-22T08:50:18;21.20;48.70
1297;DHT22;641;48.492;9.184;2023-07-22T08:52:45;21.50;49.00
1297;DHT22;641;48.492;9.184;2023-07-22T08:55:12;21.90;48.10
1297;DHT22;641;48.492;9.184;2023-07-22T08:57:38;22.00;48.30
1297;DHT22;641;48.492;9.184;2023-07-22T09:00:05;22.00;48.60
1297;DHT22;641;48.492;9.184;2023-07-22T09:02:33;21.90;47.30
1297;DHT22;641;48.492;9.184;2023-07-22T09:04:59;22.00;48.90
1297;DHT22;641;48.492;9.184;2023-07-22T09:07:25;22.30;47.60
1297;DHT22;641;48.492;9.184;2023-07-22T09:09:52;22.50;46.50
1297;DHT22;641;48.492;9.184;2023-07-22T09:12:20;22.60;44.50
1297;DHT22;641;48.492;9.184;2023-07-22T09:14:46;22.50;45.10
1297;DHT22;641;48.492;9.184;2023-07-22T09:17:13;22.60;44.30
1297;DHT22;641;48.492;9.184;2023-07-22T09:19:39;22.40;43.20
1297;DHT22;641;48.492;9.184;2023-07-22T09:22:04;22.40;44.40
1297;DHT22;641;48.492;9.184;2023-07-22T09:24:30;22.20;44.10
1297;DHT22;641;48.492;9.184;2023-07-22T09:26:57;22.50;44.10
1297;DHT22;641;48.492;9.184;2023-07-22T09:29:37;22.50;44.60
1297;DHT22;641;48.492;9.184;2023-07-22T09:32:04;22.10;43.30
1297;DHT22;641;48.492;9.184;2023-07-22T09:34:29;21.90;43.30
1297;DHT22;641;48.492;9.184;2023-07-22T09:36:57;21.90;44.50
1297;DHT22;641;48.492;9.184;2023-07-22T09:39:23;22.10;44.90
1297;DHT22;641;48.492;9.184;2023-07-22T09:41:50;22.20;45.30
1297;DHT22;641;48.492;9.184;2023-07-22T09:44:15;22.30;43.90
1297;DHT22;641;48.492;9.184;2023-07-22T09:46:42;22.40;43.50
1297;DHT22;641;48.492;9.184;2023-07-22T09:49:12;22.80;45.00
1297;DHT22;641;48.492;9.184;2023-07-22T09:51:40;23.20;43.00
1297;DHT22;641;48.492;9.184;2023-07-22T09:54:07;23.30;42.00
1297;DHT22;641;48.492;9.184;2023-07-22T09:56:46;23.60;41.80
1297;DHT22;641;48.492;9.184;2023-07-22T09:59:12;23.90;39.60
1297;DHT22;641;48.492;9.184;2023-07-22T10:01:39;23.80;41.20
1297;DHT22;641;48.492;9.184;2023-07-22T10:04:06;23.80;41.30
1297;DHT22;641;48.492;9.184;2023-07-22T10:06:32;23.70;40.60
1297;DHT22;641;48.492;9.184;2023-07-22T10:09:04;23.60;41.50
1297;DHT22;641;48.492;9.184;2023-07-22T10:11:39;23.50;41.60
1297;DHT22;641;48.492;9.184;2023-07-22T10:14:05;23.40;43.10
1297;DHT22;641;48.492;9.184;2023-07-22T10:16:31;23.30;42.80
1297;DHT22;641;48.492;9.184;2023-07-22T10:18:59;23.60;44.30
1297;DHT22;641;48.492;9.184;2023-07-22T10:21:26;23.80;44.60
1297;DHT22;641;48.492;9.184;2023-07-22T10:23:54;24.10;43.90
1297;DHT22;641;48.492;9.184;2023-07-22T10:26:20;24.10;41.90
1297;DHT22;641;48.492;9.184;2023-07-22T10:28:47;24.40;43.20
1297;DHT22;641;48.492;9.184;2023-07-22T10:31:16;24.60;42.50
1297;DHT22;641;48.492;9.184;2023-07-22T10:33:46;25.00;41.50
1297;DHT22;641;48.492;9.184;2023-07-22T10:36:16;24.90;40.90
1297;DHT22;641;48.492;9.184;2023-07-22T10:38:42;25.10;41.10
1297;DHT22;641;48.492;9.184;2023-07-22T10:41:15;25.10;41.50
1297;DHT22;641;48.492;9.184;2023-07-22T10:44:04;25.00;42.10
1297;DHT22;641;48.492;9.184;2023-07-22T10:46:33;25.00;41.00
1297;DHT22;641;48.492;9.184;2023-07-22T10:49:16;24.60;40.50
1297;DHT22;641;48.492;9.184;2023-07-22T10:51:48;24.90;42.10
1297;DHT22;641;48.492;9.184;2023-07-22T10:54:15;25.00;40.70
1297;DHT22;641;48.492;9.184;2023-07-22T10:56:42;25.30;38.50
1297;DHT22;641;48.492;9.184;2023-07-22T10:59:10;24.90;39.00
1297;DHT22;641;48.492;9.184;2023-07-22T11:01:37;25.00;40.80
1297;DHT22;641;48.492;9.184;2023-07-22T11:06:32;24.60;39.80
1297;DHT22;641;48.492;9.184;2023-07-22T11:08:57;24.30;40.40
1297;DHT22;641;48.492;9.184;2023-07-22T11:11:40;24.70;40.40
1297;DHT22;641;48.492;9.184;2023-07-22T11:14:17;24.80;40.10
1297;DHT22;641;48.492;9.184;2023-07-22T11:16:46;24.70;40.20
1297;DHT22;641;48.492;9.184;2023-07-22T11:19:14;24.30;40.20
1297;DHT22;641;48.492;9.184;2023-07-22T11:21:40;23.60;40.20
1297;DHT22;641;48.492;9.184;2023-07-22T11:24:07;23.40;41.40
1297;DHT22;641;48.492;9.184;2023-07-22T11:26:33;23.40;41.30
1297;DHT22;641;48.492;9.184;2023-07-22T11:29:03;23.30;40.20
1297;DHT22;641;48.492;9.184;2023-07-22T11:31:36;23.30;41.70
1297;DHT22;641;48.492;9.184;2023-07-22T11:34:05;23.50;43.20
1297;DHT22;641;48.492;9.184;2023-07-22T11:36:31;24.00;41.60
1297;DHT22;641;48.492;9.184;2023-07-22T11:39:08;24.20;41.30
1297;DHT22;641;48.492;9.184;2023-07-22T11:41:34;24.00;39.60
1297;DHT22;641;48.492;9.184;2023-07-22T11:44:00;24.20;41.20
1297;DHT22;641;48.492;9.184;2023-07-22T11:46:27;24.50;41.50
1297;DHT22;641;48.492;9.184;2023-07-22T11:48:53;24.90;40.40
1297;DHT22;641;48.492;9.184;2023-07-22T11:51:24;25.20;39.00
1297;DHT22;641;48.492;9.184;2023-07-22T11:53:51;25.00;37.00
1297;DHT22;641;48.492;9.184;2023-07-22T11:56:27;24.80;38.10
1297;DHT22;641;48.492;9.184;2023-07-22T11:58:56;24.70;38.30
1297;DHT22;641;48.492;9.184;2023-07-22T12:01:22;24.50;38.80
1297;DHT22;641;48.492;9.184;2023-07-22T12:03:49;24.20;38.60
1297;DHT22;641;48.492;9.184;2023-07-22T12:06:20;24.00;37.60
1297;DHT22;641;48.492;9.184;2023-07-22T12:08:47;23.80;38.40
1297;DHT22;641;48.492;9.184;2023-07-22T12:11:20;24.00;40.20
1297;DHT22;641;48.492;9.184;2023-07-22T12:13:46;24.40;39.90
1297;DHT22;641;48.492;9.184;2023-07-22T12:16:23;24.50;37.80
1297;DHT22;641;48.492;9.184;2023-07-22T12:18:49;24.20;38.20
1297;DHT22;641;48.492;9.184;2023-07-22T12:21:15;24.00;39.00
1297;DHT22;641;48.492;9.184;2023-07-22T12:23:42;24.00;39.10
1297;DHT22;641;48.492;9.184;2023-07-22T12:26:08;24.00;37.70
1297;DHT22;641;48.492;9.184;2023-07-22T12:28:34;24.10;38.70
1297;DHT22;641;48.492;9.184;2023-07-22T12:31:00;24.20;38.30
1297;DHT22;641;48.492;9.184;2023-07-22T12:33:26;24.00;38.30
1297;DHT22;641;48.492;9.184;2023-07-22T12:35:54;24.10;38.30
1297;DHT22;641;48.492;9.184;2023-07-22T12:38:20;24.40;38.60
1297;DHT22;641;48.492;9.184;2023-07-22T12:40:45;24.70;38.60
1297;DHT22;641;48.492;9.184;2023-07-22T12:43:11;24.80;39.00
1297;DHT22;641;48.492;9.184;2023-07-22T12:45:37;25.00;39.40
1297;DHT22;641;48.492;9.184;2023-07-22T12:48:02;25.40;37.90
1297;DHT22;641;48.492;9.184;2023-07-22T12:50:30;25.40;37.20
1297;DHT22;641;48.492;9.184;2023-07-22T12:52:57;25.70;37.50
1297;DHT22;641;48.492;9.184;2023-07-22T12:55:23;25.70;36.70
1297;DHT22;641;48.492;9.184;2023-07-22T12:57:48;25.60;37.50
1297;DHT22;641;48.492;9.184;2023-07-22T13:00:14;25.50;36.80
1297;DHT22;641;48.492;9.184;2023-07-22T13:02:40;25.30;37.70
1297;DHT22;641;48.492;9.184;2023-07-22T13:05:05;24.90;38.10
1297;DHT22;641;48.492;9.184;2023-07-22T13:07:32;24.60;38.00
1297;DHT22;641;48.492;9.184;2023-07-22T13:09:58;24.60;38.80
1297;DHT22;641;48.492;9.184;2023-07-22T13:12:25;24.60;39.70
1297;DHT22;641;48.492;9.184;2023-07-22T13:14:51;24.70;38.70
1297;DHT22;641;48.492;9.184;2023-07-22T13:17:16;24.90;39.40
1297;DHT22;641;48.492;9.184;2023-07-22T13:19:42;24.70;38.20
1297;DHT22;641;48.492;9.184;2023-07-22T13:22:08;25.00;40.10
1297;DHT22;641;48.492;9.184;2023-07-22T13:24:33;25.00;37.40
1297;DHT22;641;48.492;9.184;2023-07-22T13:26:59;24.70;39.00
1297;DHT22;641;48.492;9.184;2023-07-22T13:29:24;24.60;38.40
1297;DHT22;641;48.492;9.184;2023-07-22T13:31:50;24.80;39.40
1297;DHT22;641;48.492;9.184;2023-07-22T13:34:15;25.10;38.80
1297;DHT22;641;48.492;9.184;2023-07-22T13:36:41;25.30;39.00
1297;DHT22;641;48.492;9.184;2023-07-22T13:39:06;25.50;37.20
1297;DHT22;641;48.492;9.184;2023-07-22T13:41:32;25.80;38.30
1297;DHT22;641;48.492;9.184;2023-07-22T13:43:57;25.80;36.90
1297;DHT22;641;48.492;9.184;2023-07-22T13:46:23;25.50;37.00
1297;DHT22;641;48.492;9.184;2023-07-22T13:48:48;25.30;37.40
1297;DHT22;641;48.492;9.184;2023-07-22T13:51:14;25.00;37.10
1297;DHT22;641;48.492;9.184;2023-07-22T13:53:40;25.00;38.50
1297;DHT22;641;48.492;9.184;2023-07-22T13:56:05;25.20;38.70
1297;DHT22;641;48.492;9.184;2023-07-22T13:58:31;25.50;38.20
1297;DHT22;641;48.492;9.184;2023-07-22T14:00:56;25.60;36.10
1297;DHT22;641;48.492;9.184;2023-07-22T14:03:22;25.70;36.10
1297;DHT22;641;48.492;9.184;2023-07-22T14:05:47;25.60;35.40
1297;DHT22;641;48.492;9.184;2023-07-22T14:08:13;25.50;36.40
1297;DHT22;641;48.492;9.184;2023-07-22T14:10:38;25.20;36.20
1297;DHT22;641;48.492;9.184;2023-07-22T14:13:04;24.90;37.70
1297;DHT22;641;48.492;9.184;2023-07-22T14:15:30;25.20;36.80
1297;DHT22;641;48.492;9.184;2023-07-22T14:17:56;25.30;37.70
1297;DHT22;641;48.492;9.184;2023-07-22T14:20:22;25.30;37.40
1297;DHT22;641;48.492;9.184;2023-07-22T14:22:47;25.60;38.00
1297;DHT22;641;48.492;9.184;2023-07-22T14:25:16;25.30;36.10
1297;DHT22;641;48.492;9.184;2023-07-22T14:27:41;25.20;36.60
1297;DHT22;641;48.492;9.184;2023-07-22T14:30:08;25.30;37.60
1297;DHT22;641;48.492;9.184;2023-07-22T14:32:34;25.30;36.60
1297;DHT22;641;48.492;9.184;2023-07-22T14:34:59;25.20;35.30
1297;DHT22;641;48.492;9.184;2023-07-22T14:37:25;25.00;35.30
1297;DHT22;641;48.492;9.184;2023-07-22T14:39:50;25.20;36.80
1297;DHT22;641;48.492;9.184;2023-07-22T14:42:16;25.40;36.20
1297;DHT22;641;48.492;9.184;2023-07-22T14:44:42;25.60;36.00
1297;DHT22;641;48.492;9.184;2023-07-22T14:47:07;26.00;36.50
1297;DHT22;641;48.492;9.184;2023-07-22T14:49:33;26.00;34.00
1297;DHT22;641;48.492;9.184;2023-07-22T14:51:58;26.20;34.80
1297;DHT22;641;48.492;9.184;2023-07-22T14:54:24;26.40;35.40
1297;DHT22;641;48.492;9.184;2023-07-22T14:56:49;26.40;33.70
1297;DHT22;641;48.492;9.184;2023-07-22T14:59:16;26.30;34.40
1297;DHT22;641;48.492;9.184;2023-07-22T15:01:42;26.40;34.90
1297;DHT22;641;48.492;9.184;2023-07-22T15:04:08;26.20;33.50
1297;DHT22;641;48.492;9.184;2023-07-22T15:06:35;25.80;34.10
1297;DHT22;641;48.492;9.184;2023-07-22T15:09:02;26.00;33.90
1297;DHT22;641;48.492;9.184;2023-07-22T15:11:27;26.10;33.70
1297;DHT22;641;48.492;9.184;2023-07-22T15:13:53;26.60;34.60
1297;DHT22;641;48.492;9.184;2023-07-22T15:16:19;27.00;33.00
1297;DHT22;641;48.492;9.184;2023-07-22T15:18:44;26.40;32.90
1297;DHT22;641;48.492;9.184;2023-07-22T15:21:10;26.80;34.70
1297;DHT22;641;48.492;9.184;2023-07-22T15:23:36;27.10;32.70
1297;DHT22;641;48.492;9.184;2023-07-22T15:26:01;27.10;32.20
1297;DHT22;641;48.492;9.184;2023-07-22T15:28:27;27.30;32.20
1297;DHT22;641;48.492;9.184;2023-07-22T15:30:53;27.20;32.40
1297;DHT22;641;48.492;9.184;2023-07-22T15:33:19;26.80;33.00
1297;DHT22;641;48.492;9.184;2023-07-22T15:35:47;26.20;33.20
1297;DHT22;641;48.492;9.184;2023-07-22T15:38:12;25.90;33.40
1297;DHT22;641;48.492;9.184;2023-07-22T15:40:38;25.60;34.50
1297;DHT22;641;48.492;9.184;2023-07-22T15:43:04;25.60;34.60
1297;DHT22;641;48.492;9.184;2023-07-22T15:45:29;25.90;35.70
1297;DHT22;641;48.492;9.184;2023-07-22T15:47:55;25.70;34.10
1297;DHT22;641;48.492;9.184;2023-07-22T15:50:20;25.60;34.60
1297;DHT22;641;48.492;9.184;2023-07-22T15:52:46;25.50;35.20
1297;DHT22;641;48.492;9.184;2023-07-22T15:55:12;25.60;34.50
1297;DHT22;641;48.492;9.184;2023-07-22T15:57:37;25.50;34.20
1297;DHT22;641;48.492;9.184;2023-07-22T16:00:04;25.10;33.50
1297;DHT22;641;48.492;9.184;2023-07-22T16:02:29;25.10;34.70
1297;DHT22;641;48.492;9.184;2023-07-22T16:04:55;25.30;34.40
1297;DHT22;641;48.492;9.184;2023-07-22T16:07:20;25.20;34.20
1297;DHT22;641;48.492;9.184;2023-07-22T16:09:46;25.40;34.40
1297;DHT22;641;48.492;9.184;2023-07-22T16:12:12;25.20;34.20
1297;DHT22;641;48.492;9.184;2023-07-22T16:14:37;25.10;34.70